sensor_id;sensor_type;location;lat;lon;timestamp;temperature;humidity
26262;DHT22;13988;52.446;13.280;2023-03-01T00:02:20;-2.60;99.90
26262;DHT22;13988;52.446;13.280;2023-03-01T00:04:46;-2.60;99.90
26262;DHT22;13988;52.446;13.280;2023-03-01T00:07:12;-2.70;99.90
26262;DHT22;13988;52.446;13.280;2023-03-01T00:09:37;-2.80;99.90
26262;DHT22;13988;52.446;13.280;2023-03-01T00:12:04;-2.90;99.90
26262;DHT22;13988;52.446;13.280;2023-03-01T00:14:29;-2.80;99.90
26262;DHT22;13988;52.446;13.280;2023-03-01T00:16:55;-2.80;99.90
26262;DHT22;13988;52.446;13.280;2023-03-01T00:19:21;-2.80;99.90
26262;DHT22;13988;52.446;13.280;2023-03-01T00:21:48;-2.70;99.90
26262;DHT22;13988;52.446;13.280;2023-03-01T00:24:14;-2.70;99.90
26262;DHT22;13988;52.446;13.280;2023-03-01T00:26:39;-2.90;99.90
26262;DHT22;13988;52.446;13.280;2023-03-01T00:29:05;-2.80;99.90
26262;DHT22;13988;52.446;13.280;2023-03-01T00:31:32;-2.80;99.90
26262;DHT22;13988;52.446;13.280;2023-03-01T00:34:01;-2.90;99.90
26262;DHT22;13988;52.446;13.280;2023-03-01T00:36:29;-3.00;99.90
26262;DHT22;13988;52.446;13.280;2023-03-01T00:38:55;-2.90;99.90
26262;DHT22;13988;52.446;13.280;2023-03-01T00:41:22;-2.90;99.90
26262;DHT22;13988;52.446;13.280;2023-03-01T00:43:48;-2.90;99.90
26262;DHT22;13988;52.446;13.280;2023-03-01T00:46:16;-2.90;99.90
26262;DHT22;13988;52.446;13.280;2023-03-01T00:48:43;-3.00;99.90
26262;DHT22;13988;52.446;13.280;2023-03-01T00:51:11;-3.10;99.90
26262;DHT22;13988;52.446;13.280;2023-03-01T00:53:37;-3.10;99.90
26262;DHT22;13988;52.446;13.280;2023-03-01T00:56:05;-3.00;99.90
26262;DHT22;13988;52.446;13.280;2023-03-01T00:58:31;-3.00;99.90
26262;DHT22;13988;52.446;13.280;2023-03-01T01:00:57;-3.20;99.90
26262;DHT22;13988;52.446;13.280;2023-03-01T01:03:23;-3.10;99.90
26262;DHT22;13988;52.446;13.280;2023-03-01T01:05:51;-3.10;99.90
26262;DHT22;13988;52.446;13.280;2023-03-01T01:08:17;-3.30;99.90
26262;DHT22;13988;52.446;13.280;2023-03-01T01:10:44;-3.30;99.90
26262;DHT22;13988;52.446;13.280;2023-03-01T01:13:10;-3.20;99.90
26262;DHT22;13988;52.446;13.280;2023-03-01T01:15:36;-3.20;99.90
26262;DHT22;13988;52.446;13.280;2023-03-01T01:18:02;-3.10;99.90
26262;DHT22;13988;52.446;13.280;2023-03-01T01:20:28;-3.10;99.90
26262;DHT22;13988;52.446;13.280;2023-03-01T01:22:54;-3.10;99.90
26262;DHT22;13988;52.446;13.280;2023-03-01T01:25:19;-3.10;99.90
26262;DHT22;13988;52.446;13.280;2023-03-01T01:27:45;-3.10;99.90
26262;DHT22;13988;52.446;13.280;2023-03-01T01:30:11;-3.10;99.90
26262;DHT22;13988;52.446;13.280;2023-03-01T01:32:37;-3.10;99.90
26262;DHT22;13988;52.446;13.280;2023-03-01T01:35:02;-3.20;99.90
26262;DHT22;13988;52.446;13.280;2023-03-01T01:37:28;-3.10;99.90
26262;DHT22;13988;52.446;13.280;2023-03-01T01:39:57;-3.10;99.90
26262;DHT22;13988;52.446;13.280;2023-03-01T01:42:24;-3.10;99.90
26262;DHT22;13988;52.446;13.280;2023-03-01T01:48:11;-3.20;99.90
26262;DHT22;13988;52.446;13.280;2023-03-01T01:50:39;-3.20;99.90
26262;DHT22;13988;52.446;13.280;2023-03-01T01:53:15;-3.20;99.90
26262;DHT22;13988;52.446;13.280;2023-03-01T01:55:44;-3.20;99.90
26262;DHT22;13988;52.446;13.280;2023-03-01T01:58:13;-3.30;99.90
26262;DHT22;13988;52.446;13.280;2023-03-01T02:00:40;-3.30;99.90
26262;DHT22;13988;52.446;13.280;2023-03-01T02:03:11;-3.30;99.90
26262;DHT22;13988;52.446;13.280;2023-03-01T02:05:46;-3.30;99.90
26262;DHT22;13988;52.446;13.280;2023-03-01T02:08:15;-3.30;99.90
26262;DHT22;13988;52.446;13.280;2023-03-01T02:10:41;-3.40;99.90
26262;DHT22;13988;52.446;13.280;2023-03-01T02:13:07;-3.50;99.90
26262;DHT22;13988;52.446;13.280;2023-03-01T02:15:35;-3.50;99.90
26262;DHT22;13988;52.446;13.280;2023-03-01T02:18:03;-3.50;99.90
26262;DHT22;13988;52.446;13.280;2023-03-01T02:23:13;-3.50;99.90
26262;DHT22;13988;52.446;13.280;2023-03-01T02:30:50;-3.50;99.90
26262;DHT22;13988;52.446;13.280;2023-03-01T02:33:36;-3.50;99.90
26262;DHT22;13988;52.446;13.280;2023-03-01T02:36:17;-3.50;99.90
26262;DHT22;13988;52.446;13.280;2023-03-01T02:38:44;-3.70;99.90
26262;DHT22;13988;52.446;13.280;2023-03-01T02:41:12;-3.80;99.90
26262;DHT22;13988;52.446;13.280;2023-03-01T02:43:38;-3.90;99.90
26262;DHT22;13988;52.446;13.280;2023-03-01T02:46:21;-4.00;99.90
26262;DHT22;13988;52.446;13.280;2023-03-01T02:48:50;-4.00;99.90
26262;DHT22;13988;52.446;13.280;2023-03-01T02:56:41;-4.00;99.90
26262;DHT22;13988;52.446;13.280;2023-03-01T02:59:07;-3.80;99.90
26262;DHT22;13988;52.446;13.280;2023-03-01T03:01:33;-3.80;99.90
26262;DHT22;13988;52.446;13.280;2023-03-01T03:04:07;-3.70;99.90
26262;DHT22;13988;52.446;13.280;2023-03-01T03:06:33;-3.70;99.90
26262;DHT22;13988;52.446;13.280;2023-03-01T03:08:59;-3.70;99.90
26262;DHT22;13988;52.446;13.280;2023-03-01T03:11:25;-3.70;99.90
26262;DHT22;13988;52.446;13.280;2023-03-01T03:13:51;-3.70;99.90
26262;DHT22;13988;52.446;13.280;2023-03-01T03:16:17;-3.70;99.90
26262;DHT22;13988;52.446;13.280;2023-03-01T03:18:43;-3.70;99.90
26262;DHT22;13988;52.446;13.280;2023-03-01T03:21:11;-3.70;99.90
26262;DHT22;13988;52.446;13.280;2023-03-01T03:23:36;-3.70;99.90
26262;DHT22;13988;52.446;13.280;2023-03-01T03:26:03;-3.80;99.90
26262;DHT22;13988;52.446;13.280;2023-03-01T03:28:33;-3.80;99.90
26262;DHT22;13988;52.446;13.280;2023-03-01T03:30:59;-3.90;99.90
26262;DHT22;13988;52.446;13.280;2023-03-01T03:33:29;-4.00;99.90
26262;DHT22;13988;52.446;13.280;2023-03-01T03:35:55;-3.90;99.90
26262;DHT22;13988;52.446;13.280;2023-03-01T03:38:22;-3.90;99.90
26262;DHT22;13988;52.446;13.280;2023-03-01T03:40:50;-3.80;99.90
26262;DHT22;13988;52.446;13.280;2023-03-01T03:43:21;-3.80;99.90
26262;DHT22;13988;52.446;13.280;2023-03-01T03:45:49;-3.90;99.90
26262;DHT22;13988;52.446;13.280;2023-03-01T03:48:15;-3.90;99.90
26262;DHT22;13988;52.446;13.280;2023-03-01T03:50:46;-3.90;99.90
26262;DHT22;13988;52.446;13.280;2023-03-01T03:53:12;-3.90;99.90
26262;DHT22;13988;52.446;13.280;2023-03-01T03:55:38;-3.90;99.90
26262;DHT22;13988;52.446;13.280;2023-03-01T03:58:06;-4.00;99.90
26262;DHT22;13988;52.446;13.280;2023-03-01T04:00:39;-4.20;99.90
26262;DHT22;13988;52.446;13.280;2023-03-01T04:03:06;-4.10;99.90
26262;DHT22;13988;52.446;13.280;2023-03-01T04:05:32;-4.10;99.90
26262;DHT22;13988;52.446;13.280;2023-03-01T04:07:58;-4.00;99.90
26262;DHT22;13988;52.446;13.280;2023-03-01T04:10:29;-4.10;99.90
26262;DHT22;13988;52.446;13.280;2023-03-01T04:12:55;-4.10;99.90
26262;DHT22;13988;52.446;13.280;2023-03-01T04:15:22;-4.10;99.90
26262;DHT22;13988;52.446;13.280;2023-03-01T04:17:51;-4.10;99.90
26262;DHT22;13988;52.446;13.280;2023-03-01T04:20:22;-4.10;99.90
26262;DHT22;13988;52.446;13.280;2023-03-01T04:23:15;-4.10;99.90
26262;DHT22;13988;52.446;13.280;2023-03-01T04:25:58;-4.10;99.90
26262;DHT22;13988;52.446;13.280;2023-03-01T04:28:26;-4.10;99.90
26262;DHT22;13988;52.446;13.280;2023-03-01T04:30:57;-4.10;99.90
26262;DHT22;13988;52.446;13.280;2023-03-01T04:33:23;-4.10;99.90
26262;DHT22;13988;52.446;13.280;2023-03-01T04:35:49;-4.20;99.90
26262;DHT22;13988;52.446;13.280;2023-03-01T04:38:16;-4.10;99.90
26262;DHT22;13988;52.446;13.280;2023-03-01T04:40:42;-4.10;99.90
26262;DHT22;13988;52.446;13.280;2023-03-01T04:43:09;-4.10;99.90
26262;DHT22;13988;52.446;13.280;2023-03-01T04:45:36;-4.20;99.90
26262;DHT22;13988;52.446;13.280;2023-03-01T04:48:02;-4.20;99.90
26262;DHT22;13988;52.446;13.280;2023-03-01T04:50:28;-4.20;99.90
26262;DHT22;13988;52.446;13.280;2023-03-01T04:52:54;-4.20;99.90
26262;DHT22;13988;52.446;13.280;2023-03-01T04:55:24;-4.20;99.90
26262;DHT22;13988;52.446;13.280;2023-03-01T04:57:51;-4.20;99.90
26262;DHT22;13988;52.446;13.280;2023-03-01T05:00:16;-4.30;99.90
26262;DHT22;13988;52.446;13.280;2023-03-01T05:02:59;-4.30;99.90
26262;DHT22;13988;52.446;13.280;2023-03-01T05:05:40;-4.40;99.90
26262;DHT22;13988;52.446;13.280;2023-03-01T05:08:07;-4.60;99.90
26262;DHT22;13988;52.446;13.280;2023-03-01T05:10:34;-4.50;99.90
26262;DHT22;13988;52.446;13.280;2023-03-01T05:13:01;-4.40;99.90
26262;DHT22;13988;52.446;13.280;2023-03-01T05:15:29;-4.40;99.90
26262;DHT22;13988;52.446;13.280;2023-03-01T05:17:56;-4.40;99.90
26262;DHT22;13988;52.446;13.280;2023-03-01T05:20:25;-4.40;99.90
26262;DHT22;13988;52.446;13.280;2023-03-01T05:22:52;-4.40;99.90
26262;DHT22;13988;52.446;13.280;2023-03-01T05:25:19;-4.50;99.90
26262;DHT22;13988;52.446;13.280;2023-03-01T05:27:46;-4.40;99.90
26262;DHT22;13988;52.446;13.280;2023-03-01T05:30:13;-4.50;99.90
26262;DHT22;13988;52.446;13.280;2023-03-01T05:32:47;-4.70;99.90
26262;DHT22;13988;52.446;13.280;2023-03-01T05:35:14;-4.70;99.90
26262;DHT22;13988;52.446;13.280;2023-03-01T05:37:41;-4.60;99.90
26262;DHT22;13988;52.446;13.280;2023-03-01T05:40:08;-4.50;99.90
26262;DHT22;13988;52.446;13.280;2023-03-01T05:42:41;-4.50;99.90
26262;DHT22;13988;52.446;13.280;2023-03-01T05:45:08;-4.50;99.90
26262;DHT22;13988;52.446;13.280;2023-03-01T05:47:35;-4.50;99.90
26262;DHT22;13988;52.446;13.280;2023-03-01T05:50:01;-4.50;99.90
26262;DHT22;13988;52.446;13.280;2023-03-01T05:52:27;-4.50;99.90
26262;DHT22;13988;52.446;13.280;2023-03-01T05:54:52;-4.50;99.90
26262;DHT22;13988;52.446;13.280;2023-03-01T05:57:18;-4.50;99.90
26262;DHT22;13988;52.446;13.280;2023-03-01T05:59:43;-4.50;99.90
26262;DHT22;13988;52.446;13.280;2023-03-01T06:02:10;-4.50;99.90
26262;DHT22;13988;52.446;13.280;2023-03-01T06:04:36;-4.50;99.90
26262;DHT22;13988;52.446;13.280;2023-03-01T06:07:01;-4.50;99.90
26262;DHT22;13988;52.446;13.280;2023-03-01T06:09:27;-4.50;99.90
26262;DHT22;13988;52.446;13.280;2023-03-01T06:11:53;-4.70;99.90
26262;DHT22;13988;52.446;13.280;2023-03-01T06:14:18;-4.70;99.90
26262;DHT22;13988;52.446;13.280;2023-03-01T06:16:46;-4.60;99.90
26262;DHT22;13988;52.446;13.280;2023-03-01T06:19:11;-4.50;99.90
26262;DHT22;13988;52.446;13.280;2023-03-01T06:21:37;-4.50;99.90
26262;DHT22;13988;52.446;13.280;2023-03-01T06:24:03;-4.40;99.90
26262;DHT22;13988;52.446;13.280;2023-03-01T06:26:29;-4.40;99.90
26262;DHT22;13988;52.446;13.280;2023-03-01T06:28:54;-4.30;99.90
26262;DHT22;13988;52.446;13.280;2023-03-01T06:31:20;-4.30;99.90
26262;DHT22;13988;52.446;13.280;2023-03-01T06:33:45;-4.20;99.90
26262;DHT22;13988;52.446;13.280;2023-03-01T06:36:11;-4.20;99.90
26262;DHT22;13988;52.446;13.280;2023-03-01T06:38:37;-4.20;99.90
26262;DHT22;13988;52.446;13.280;2023-03-01T06:41:02;-4.20;99.90
26262;DHT22;13988;52.446;13.280;2023-03-01T06:43:28;-4.10;99.90
26262;DHT22;13988;52.446;13.280;2023-03-01T06:45:54;-4.10;99.90
26262;DHT22;13988;52.446;13.280;2023-03-01T06:48:19;-4.10;99.90
26262;DHT22;13988;52.446;13.280;2023-03-01T06:50:45;-4.10;99.90
26262;DHT22;13988;52.446;13.280;2023-03-01T06:53:10;-4.10;99.90
26262;DHT22;13988;52.446;13.280;2023-03-01T06:55:36;-3.90;99.90
26262;DHT22;13988;52.446;13.280;2023-03-01T06:58:02;-3.80;99.90
26262;DHT22;13988;52.446;13.280;2023-03-01T07:00:29;-3.70;99.90
26262;DHT22;13988;52.446;13.280;2023-03-01T07:02:56;-3.50;99.90
26262;DHT22;13988;52.446;13.280;2023-03-01T07:05:23;-3.40;99.90
26262;DHT22;13988;52.446;13.280;2023-03-01T07:07:48;-3.40;99.90
26262;DHT22;13988;52.446;13.280;2023-03-01T07:10:14;-3.30;99.90
26262;DHT22;13988;52.446;13.280;2023-03-01T07:12:40;-3.20;99.90
26262;DHT22;13988;52.446;13.280;2023-03-01T07:15:08;-3.10;99.90
26262;DHT22;13988;52.446;13.280;2023-03-01T07:17:34;-3.10;99.90
26262;DHT22;13988;52.446;13.280;2023-03-01T07:20:00;-3.10;99.90
26262;DHT22;13988;52.446;13.280;2023-03-01T07:22:26;-2.90;99.90
26262;DHT22;13988;52.446;13.280;2023-03-01T07:24:51;-2.80;99.90
26262;DHT22;13988;52.446;13.280;2023-03-01T07:27:17;-2.70;99.90
26262;DHT22;13988;52.446;13.280;2023-03-01T07:29:42;-2.60;99.90
26262;DHT22;13988;52.446;13.280;2023-03-01T07:32:08;-2.50;99.90
26262;DHT22;13988;52.446;13.280;2023-03-01T07:34:35;-2.20;99.90
26262;DHT22;13988;52.446;13.280;2023-03-01T07:37:00;-2.10;99.90
26262;DHT22;13988;52.446;13.280;2023-03-01T07:39:26;-2.00;99.90
26262;DHT22;13988;52.446;13.280;2023-03-01T07:41:51;-1.80;99.90
26262;DHT22;13988;52.446;13.280;2023-03-01T07:44:17;-1.80;99.90
26262;DHT22;13988;52.446;13.280;2023-03-01T07:46:44;-1.60;99.90
26262;DHT22;13988;52.446;13.280;2023-03-01T07:49:10;-1.40;99.90
26262;DHT22;13988;52.446;13.280;2023-03-01T07:51:35;-1.30;99.90
26262;DHT22;13988;52.446;13.280;2023-03-01T07:54:01;-1.10;99.90
26262;DHT22;13988;52.446;13.280;2023-03-01T07:56:26;-1.10;99.90
26262;DHT22;13988;52.446;13.280;2023-03-01T07:58:52;-0.90;99.90
26262;DHT22;13988;52.446;13.280;2023-03-01T08:01:20;-0.80;99.90
26262;DHT22;13988;52.446;13.280;2023-03-01T08:03:46;-0.50;99.90
26262;DHT22;13988;52.446;13.280;2023-03-01T08:06:14;-0.40;99.90
26262;DHT22;13988;52.446;13.280;2023-03-01T08:08:40;-0.30;99.90
26262;DHT22;13988;52.446;13.280;2023-03-01T08:11:07;-0.30;99.90
26262;DHT22;13988;52.446;13.280;2023-03-01T08:13:35;-0.10;99.90
26262;DHT22;13988;52.446;13.280;2023-03-01T08:16:12;-0.10;99.90
26262;DHT22;13988;52.446;13.280;2023-03-01T08:18:38;-0.20;99.90
26262;DHT22;13988;52.446;13.280;2023-03-01T08:21:06;0.30;99.90
26262;DHT22;13988;52.446;13.280;2023-03-01T08:23:32;0.50;99.90
26262;DHT22;13988;52.446;13.280;2023-03-01T08:26:08;0.80;99.90
26262;DHT22;13988;52.446;13.280;2023-03-01T08:28:34;0.90;99.90
26262;DHT22;13988;52.446;13.280;2023-03-01T08:31:00;1.00;99.90
26262;DHT22;13988;52.446;13.280;2023-03-01T08:33:26;1.00;99.90
26262;DHT22;13988;52.446;13.280;2023-03-01T08:35:52;1.10;99.90
26262;DHT22;13988;52.446;13.280;2023-03-01T08:38:17;1.40;99.90
26262;DHT22;13988;52.446;13.280;2023-03-01T08:40:43;1.30;99.90
26262;DHT22;13988;52.446;13.280;2023-03-01T08:43:09;1.50;99.90
26262;DHT22;13988;52.446;13.280;2023-03-01T08:45:34;1.60;99.90
26262;DHT22;13988;52.446;13.280;2023-03-01T08:48:00;1.50;99.90
26262;DHT22;13988;52.446;13.280;2023-03-01T08:50:25;1.40;99.90
26262;DHT22;13988;52.446;13.280;2023-03-01T08:52:51;1.90;99.90
26262;DHT22;13988;52.446;13.280;2023-03-01T08:55:17;2.10;99.90
26262;DHT22;13988;52.446;13.280;2023-03-01T08:57:43;2.10;99.90
26262;DHT22;13988;52.446;13.280;2023-03-01T09:00:10;2.20;99.90
26262;DHT22;13988;52.446;13.280;2023-03-01T09:02:37;2.50;99.90
26262;DHT22;13988;52.446;13.280;2023-03-01T09:05:04;2.30;99.90
26262;DHT22;13988;52.446;13.280;2023-03-01T09:07:30;2.30;99.90
26262;DHT22;13988;52.446;13.280;2023-03-01T09:09:55;2.50;99.90
26262;DHT22;13988;52.446;13.280;2023-03-01T09:12:21;2.50;99.90
26262;DHT22;13988;52.446;13.280;2023-03-01T09:14:47;2.50;99.90
26262;DHT22;13988;52.446;13.280;2023-03-01T09:17:13;2.60;99.90
26262;DHT22;13988;52.446;13.280;2023-03-01T09:19:38;2.70;99.90
26262;DHT22;13988;52.446;13.280;2023-03-01T09:22:04;2.40;99.90
26262;DHT22;13988;52.446;13.280;2023-03-01T09:24:30;2.50;99.90
26262;DHT22;13988;52.446;13.280;2023-03-01T09:26:56;2.40;99.90
26262;DHT22;13988;52.446;13.280;2023-03-01T09:29:22;2.50;99.90
26262;DHT22;13988;52.446;13.280;2023-03-01T09:31:48;2.50;99.90
26262;DHT22;13988;52.446;13.280;2023-03-01T09:34:14;2.70;99.90
26262;DHT22;13988;52.446;13.280;2023-03-01T09:36:41;2.80;99.90
26262;DHT22;13988;52.446;13.280;2023-03-01T09:39:07;2.80;99.90
26262;DHT22;13988;52.446;13.280;2023-03-01T09:41:45;2.90;99.90
26262;DHT22;13988;52.446;13.280;2023-03-01T09:44:40;3.20;99.90
26262;DHT22;13988;52.446;13.280;2023-03-01T09:47:30;3.20;99.90
26262;DHT22;13988;52.446;13.280;2023-03-01T10:00:50;3.40;99.90
26262;DHT22;13988;52.446;13.280;2023-03-01T10:08:29;3.50;99.90
26262;DHT22;13988;52.446;13.280;2023-03-01T10:10:56;3.50;99.90
26262;DHT22;13988;52.446;13.280;2023-03-01T10:16:23;4.20;99.90
26262;DHT22;13988;52.446;13.280;2023-03-01T10:18:59;4.30;99.90
26262;DHT22;13988;52.446;13.280;2023-03-01T10:21:27;4.10;99.90
26262;DHT22;13988;52.446;13.280;2023-03-01T10:23:53;4.20;99.90
26262;DHT22;13988;52.446;13.280;2023-03-01T10:26:47;4.10;99.90
26262;DHT22;13988;52.446;13.280;2023-03-01T10:29:14;4.20;99.90
26262;DHT22;13988;52.446;13.280;2023-03-01T10:31:44;4.20;99.90
26262;DHT22;13988;52.446;13.280;2023-03-01T10:34:21;4.20;99.90
26262;DHT22;13988;52.446;13.280;2023-03-01T10:36:50;3.90;99.90
26262;DHT22;13988;52.446;13.280;2023-03-01T10:39:18;4.40;99.90
26262;DHT22;13988;52.446;13.280;2023-03-01T10:42:19;4.20;99.90
26262;DHT22;13988;52.446;13.280;2023-03-01T10:44:47;4.40;99.90
26262;DHT22;13988;52.446;13.280;2023-03-01T10:47:25;4.10;99.90
26262;DHT22;13988;52.446;13.280;2023-03-01T10:52:30;4.40;99.90
26262;DHT22;13988;52.446;13.280;2023-03-01T10:54:59;4.30;99.90
26262;DHT22;13988;52.446;13.280;2023-03-01T10:57:39;4.50;99.90
26262;DHT22;13988;52.446;13.280;2023-03-01T11:03:10;4.50;99.90
26262;DHT22;13988;52.446;13.280;2023-03-01T11:05:36;4.90;99.90
26262;DHT22;13988;52.446;13.280;2023-03-01T11:08:02;5.00;98.10
26262;DHT22;13988;52.446;13.280;2023-03-01T11:10:34;5.10;96.70
26262;DHT22;13988;52.446;13.280;2023-03-01T11:13:19;4.90;96.40
26262;DHT22;13988;52.446;13.280;2023-03-01T11:16:10;5.00;97.30
26262;DHT22;13988;52.446;13.280;2023-03-01T11:18:37;4.90;97.60
26262;DHT22;13988;52.446;13.280;2023-03-01T11:21:03;5.10;99.00
26262;DHT22;13988;52.446;13.280;2023-03-01T11:23:30;5.20;97.20
26262;DHT22;13988;52.446;13.280;2023-03-01T11:26:01;5.20;96.90
26262;DHT22;13988;52.446;13.280;2023-03-01T11:28:29;5.30;96.90
26262;DHT22;13988;52.446;13.280;2023-03-01T11:31:05;5.30;96.70
26262;DHT22;13988;52.446;13.280;2023-03-01T11:34:07;5.30;96.00
26262;DHT22;13988;52.446;13.280;2023-03-01T11:36:43;5.30;97.00
26262;DHT22;13988;52.446;13.280;2023-03-01T11:39:31;5.60;94.00
26262;DHT22;13988;52.446;13.280;2023-03-01T11:42:28;5.50;93.90
26262;DHT22;13988;52.446;13.280;2023-03-01T11:44:54;5.90;92.30
26262;DHT22;13988;52.446;13.280;2023-03-01T11:53:02;5.90;91.70
26262;DHT22;13988;52.446;13.280;2023-03-01T11:55:51;5.80;90.90
26262;DHT22;13988;52.446;13.280;2023-03-01T11:58:34;7.70;92.10
26262;DHT22;13988;52.446;13.280;2023-03-01T12:03:42;6.30;87.30
26262;DHT22;13988;52.446;13.280;2023-03-01T12:09:14;9.50;77.40
26262;DHT22;13988;52.446;13.280;2023-03-01T12:17:48;8.90;71.20
26262;DHT22;13988;52.446;13.280;2023-03-01T12:20:25;9.30;69.20
26262;DHT22;13988;52.446;13.280;2023-03-01T12:34:26;12.80;57.50
26262;DHT22;13988;52.446;13.280;2023-03-01T12:51:23;14.70;50.10
26262;DHT22;13988;52.446;13.280;2023-03-01T12:53:51;10.80;52.80
26262;DHT22;13988;52.446;13.280;2023-03-01T12:56:22;9.10;57.30
26262;DHT22;13988;52.446;13.280;2023-03-01T13:02:31;10.00;57.10
26262;DHT22;13988;52.446;13.280;2023-03-01T13:10:33;10.70;51.90
26262;DHT22;13988;52.446;13.280;2023-03-01T13:13:25;10.20;58.70
26262;DHT22;13988;52.446;13.280;2023-03-01T13:15:52;10.50;59.10
26262;DHT22;13988;52.446;13.280;2023-03-01T13:20:47;10.40;52.50
26262;DHT22;13988;52.446;13.280;2023-03-01T13:26:01;10.40;51.60
26262;DHT22;13988;52.446;13.280;2023-03-01T13:28:38;8.90;51.90
26262;DHT22;13988;52.446;13.280;2023-03-01T13:33:59;9.60;55.10
26262;DHT22;13988;52.446;13.280;2023-03-01T13:46:53;10.40;51.30
26262;DHT22;13988;52.446;13.280;2023-03-01T13:49:28;9.90;55.40
26262;DHT22;13988;52.446;13.280;2023-03-01T13:51:54;8.90;54.90
26262;DHT22;13988;52.446;13.280;2023-03-01T13:54:29;8.50;54.10
26262;DHT22;13988;52.446;13.280;2023-03-01T13:56:56;8.90;53.70
26262;DHT22;13988;52.446;13.280;2023-03-01T13:59:23;9.30;53.40
26262;DHT22;13988;52.446;13.280;2023-03-01T14:01:59;9.50;53.30
26262;DHT22;13988;52.446;13.280;2023-03-01T14:04:26;11.30;52.70
26262;DHT22;13988;52.446;13.280;2023-03-01T14:07:12;10.80;50.10
26262;DHT22;13988;52.446;13.280;2023-03-01T14:09:41;10.50;49.40
26262;DHT22;13988;52.446;13.280;2023-03-01T14:17:49;8.10;54.00
26262;DHT22;13988;52.446;13.280;2023-03-01T14:22:44;7.90;55.40
26262;DHT22;13988;52.446;13.280;2023-03-01T14:25:33;8.00;56.70
26262;DHT22;13988;52.446;13.280;2023-03-01T14:28:21;7.90;58.00
26262;DHT22;13988;52.446;13.280;2023-03-01T14:30:53;7.60;58.80
26262;DHT22;13988;52.446;13.280;2023-03-01T14:36:07;7.60;57.40
26262;DHT22;13988;52.446;13.280;2023-03-01T14:41:06;7.40;57.60
26262;DHT22;13988;52.446;13.280;2023-03-01T14:43:33;7.50;58.50
26262;DHT22;13988;52.446;13.280;2023-03-01T14:46:01;7.60;59.80
26262;DHT22;13988;52.446;13.280;2023-03-01T14:48:28;7.80;60.80
26262;DHT22;13988;52.446;13.280;2023-03-01T14:50:54;7.60;59.50
26262;DHT22;13988;52.446;13.280;2023-03-01T14:53:29;7.50;59.90
26262;DHT22;13988;52.446;13.280;2023-03-01T14:56:00;7.60;57.80
26262;DHT22;13988;52.446;13.280;2023-03-01T14:58:32;7.50;59.30
26262;DHT22;13988;52.446;13.280;2023-03-01T15:01:00;7.30;59.30
26262;DHT22;13988;52.446;13.280;2023-03-01T15:03:32;7.30;59.80
26262;DHT22;13988;52.446;13.280;2023-03-01T15:06:01;7.50;59.60
26262;DHT22;13988;52.446;13.280;2023-03-01T15:08:27;7.50;59.50
26262;DHT22;13988;52.446;13.280;2023-03-01T15:10:59;7.60;58.80
26262;DHT22;13988;52.446;13.280;2023-03-01T15:13:28;7.70;58.90
26262;DHT22;13988;52.446;13.280;2023-03-01T15:16:11;7.70;58.80
26262;DHT22;13988;52.446;13.280;2023-03-01T15:18:42;7.70;59.30
26262;DHT22;13988;52.446;13.280;2023-03-01T15:21:18;7.60;59.70
26262;DHT22;13988;52.446;13.280;2023-03-01T15:24:04;7.40;59.70
26262;DHT22;13988;52.446;13.280;2023-03-01T15:26:41;7.40;59.00
26262;DHT22;13988;52.446;13.280;2023-03-01T15:29:18;7.40;59.70
26262;DHT22;13988;52.446;13.280;2023-03-01T15:31:58;7.30;61.60
26262;DHT22;13988;52.446;13.280;2023-03-01T15:34:30;7.30;60.60
26262;DHT22;13988;52.446;13.280;2023-03-01T15:36:59;7.10;61.30
26262;DHT22;13988;52.446;13.280;2023-03-01T15:39:39;7.00;62.10
26262;DHT22;13988;52.446;13.280;2023-03-01T15:42:06;6.90;64.30
26262;DHT22;13988;52.446;13.280;2023-03-01T15:44:34;7.20;64.20
26262;DHT22;13988;52.446;13.280;2023-03-01T15:47:01;7.10;64.60
26262;DHT22;13988;52.446;13.280;2023-03-01T15:49:40;7.20;64.40
26262;DHT22;13988;52.446;13.280;2023-03-01T15:52:32;7.00;66.70
26262;DHT22;13988;52.446;13.280;2023-03-01T15:55:04;7.10;65.40
26262;DHT22;13988;52.446;13.280;2023-03-01T15:57:31;7.00;65.80
26262;DHT22;13988;52.446;13.280;2023-03-01T15:59:57;6.80;67.60
26262;DHT22;13988;52.446;13.280;2023-03-01T16:02:24;6.60;69.90
26262;DHT22;13988;52.446;13.280;2023-03-01T16:04:50;6.60;71.60
26262;DHT22;13988;52.446;13.280;2023-03-01T16:07:16;6.40;72.20
26262;DHT22;13988;52.446;13.280;2023-03-01T16:09:42;6.40;72.00
26262;DHT22;13988;52.446;13.280;2023-03-01T16:12:14;6.40;71.70
26262;DHT22;13988;52.446;13.280;2023-03-01T16:14:41;6.40;73.20
26262;DHT22;13988;52.446;13.280;2023-03-01T16:17:06;6.20;75.70
26262;DHT22;13988;52.446;13.280;2023-03-01T16:19:35;6.30;75.30
26262;DHT22;13988;52.446;13.280;2023-03-01T16:22:02;6.40;76.00
26262;DHT22;13988;52.446;13.280;2023-03-01T16:24:28;6.10;77.10
26262;DHT22;13988;52.446;13.280;2023-03-01T16:26:54;6.20;77.90
26262;DHT22;13988;52.446;13.280;2023-03-01T16:29:19;6.30;77.70
26262;DHT22;13988;52.446;13.280;2023-03-01T16:31:45;6.20;77.30
26262;DHT22;13988;52.446;13.280;2023-03-01T16:34:12;6.00;76.50
26262;DHT22;13988;52.446;13.280;2023-03-01T16:36:38;5.60;80.80
26262;DHT22;13988;52.446;13.280;2023-03-01T16:39:04;5.30;83.20
26262;DHT22;13988;52.446;13.280;2023-03-01T16:41:30;5.10;83.80
26262;DHT22;13988;52.446;13.280;2023-03-01T16:43:55;4.90;86.20
26262;DHT22;13988;52.446;13.280;2023-03-01T16:46:25;4.70;86.20
26262;DHT22;13988;52.446;13.280;2023-03-01T16:48:51;4.60;88.30
26262;DHT22;13988;52.446;13.280;2023-03-01T16:51:17;4.50;89.80
26262;DHT22;13988;52.446;13.280;2023-03-01T16:53:44;4.50;92.40
26262;DHT22;13988;52.446;13.280;2023-03-01T16:56:11;4.10;93.40
26262;DHT22;13988;52.446;13.280;2023-03-01T16:58:37;4.20;95.80
26262;DHT22;13988;52.446;13.280;2023-03-01T17:01:15;4.20;96.50
26262;DHT22;13988;52.446;13.280;2023-03-01T17:03:42;4.10;97.00
26262;DHT22;13988;52.446;13.280;2023-03-01T17:06:10;4.00;97.70
26262;DHT22;13988;52.446;13.280;2023-03-01T17:08:37;3.80;98.40
26262;DHT22;13988;52.446;13.280;2023-03-01T17:11:14;3.70;99.90
26262;DHT22;13988;52.446;13.280;2023-03-01T17:13:40;3.50;99.90
26262;DHT22;13988;52.446;13.280;2023-03-01T17:16:09;3.40;99.90
26262;DHT22;13988;52.446;13.280;2023-03-01T17:18:35;3.40;99.90
26262;DHT22;13988;52.446;13.280;2023-03-01T17:21:01;3.30;99.90
26262;DHT22;13988;52.446;13.280;2023-03-01T17:23:28;3.10;99.90
26262;DHT22;13988;52.446;13.280;2023-03-01T17:25:54;3.00;99.90
26262;DHT22;13988;52.446;13.280;2023-03-01T17:28:21;3.00;99.90
26262;DHT22;13988;52.446;13.280;2023-03-01T17:30:48;3.00;99.90
26262;DHT22;13988;52.446;13.280;2023-03-01T17:33:14;2.70;99.90
26262;DHT22;13988;52.446;13.280;2023-03-01T17:35:40;2.70;99.90
26262;DHT22;13988;52.446;13.280;2023-03-01T17:38:06;2.70;99.90
26262;DHT22;13988;52.446;13.280;2023-03-01T17:40:32;2.70;99.90